sensor_id;sensor_type;location;lat;lon;timestamp;P1;durP1;ratioP1;P2;durP2;ratioP2
23720;SDS011;42950;52.134;5.578;2023-08-12T00:00:28;7.60;;;5.88;;
23720;SDS011;42950;52.134;5.578;2023-08-12T00:02:54;10.63;;;5.97;;
23720;SDS011;42950;52.134;5.578;2023-08-12T00:05:20;8.73;;;5.75;;
23720;SDS011;42950;52.134;5.578;2023-08-12T00:07:47;9.60;;;5.93;;
23720;SDS011;42950;52.134;5.578;2023-08-12T00:10:13;9.07;;;6.38;;
23720;SDS011;42950;52.134;5.578;2023-08-12T00:12:39;9.85;;;5.90;;
23720;SDS011;42950;52.134;5.578;2023-08-12T00:15:05;9.27;;;6.75;;
23720;SDS011;42950;52.134;5.578;2023-08-12T00:17:33;10.35;;;6.28;;
23720;SDS011;42950;52.134;5.578;2023-08-12T00:20:00;9.88;;;6.35;;
23720;SDS011;42950;52.134;5.578;2023-08-12T00:22:25;9.73;;;6.68;;
23720;SDS011;42950;52.134;5.578;2023-08-12T00:24:51;12.10;;;8.25;;
23720;SDS011;42950;52.134;5.578;2023-08-12T00:27:17;10.63;;;7.63;;
23720;SDS011;42950;52.134;5.578;2023-08-12T00:29:43;10.20;;;7.60;;
23720;SDS011;42950;52.134;5.578;2023-08-12T00:32:10;8.80;;;7.65;;
23720;SDS011;42950;52.134;5.578;2023-08-12T00:34:36;13.65;;;8.30;;
23720;SDS011;42950;52.134;5.578;2023-08-12T00:37:02;10.25;;;8.27;;
23720;SDS011;42950;52.134;5.578;2023-08-12T00:39:28;10.93;;;8.52;;
23720;SDS011;42950;52.134;5.578;2023-08-12T00:41:54;12.73;;;8.88;;
23720;SDS011;42950;52.134;5.578;2023-08-12T00:44:19;18.77;;;9.95;;
23720;SDS011;42950;52.134;5.578;2023-08-12T00:46:45;12.02;;;8.70;;
23720;SDS011;42950;52.134;5.578;2023-08-12T00:49:11;15.93;;;9.07;;
23720;SDS011;42950;52.134;5.578;2023-08-12T00:51:39;14.60;;;9.68;;
23720;SDS011;42950;52.134;5.578;2023-08-12T00:54:07;13.48;;;10.00;;
23720;SDS011;42950;52.134;5.578;2023-08-12T00:56:38;14.65;;;9.15;;
23720;SDS011;42950;52.134;5.578;2023-08-12T00:59:04;17.48;;;10.80;;
23720;SDS011;42950;52.134;5.578;2023-08-12T01:01:32;13.35;;;9.95;;
23720;SDS011;42950;52.134;5.578;2023-08-12T01:03:58;13.50;;;10.23;;
23720;SDS011;42950;52.134;5.578;2023-08-12T01:06:24;13.75;;;10.88;;
23720;SDS011;42950;52.134;5.578;2023-08-12T01:08:52;17.17;;;11.20;;
23720;SDS011;42950;52.134;5.578;2023-08-12T01:14:05;17.42;;;10.32;;
23720;SDS011;42950;52.134;5.578;2023-08-12T01:16:41;17.25;;;10.40;;
23720;SDS011;42950;52.134;5.578;2023-08-12T01:19:12;14.20;;;10.57;;
23720;SDS011;42950;52.134;5.578;2023-08-12T01:22:08;18.00;;;10.85;;
23720;SDS011;42950;52.134;5.578;2023-08-12T01:24:38;14.50;;;11.23;;
23720;SDS011;42950;52.134;5.578;2023-08-12T01:27:05;14.55;;;11.50;;
23720;SDS011;42950;52.134;5.578;2023-08-12T01:29:32;18.05;;;11.27;;
23720;SDS011;42950;52.134;5.578;2023-08-12T01:32:11;17.15;;;11.02;;
23720;SDS011;42950;52.134;5.578;2023-08-12T01:37:31;15.10;;;12.02;;
23720;SDS011;42950;52.134;5.578;2023-08-12T01:40:00;17.63;;;11.63;;
23720;SDS011;42950;52.134;5.578;2023-08-12T01:42:29;17.30;;;12.45;;
23720;SDS011;42950;52.134;5.578;2023-08-12T01:44:57;16.52;;;11.32;;
23720;SDS011;42950;52.134;5.578;2023-08-12T01:47:23;19.83;;;12.85;;
23720;SDS011;42950;52.134;5.578;2023-08-12T01:49:48;17.00;;;11.40;;
23720;SDS011;42950;52.134;5.578;2023-08-12T01:52:14;14.57;;;11.30;;
23720;SDS011;42950;52.134;5.578;2023-08-12T01:54:40;16.02;;;10.60;;
23720;SDS011;42950;52.134;5.578;2023-08-12T01:57:06;14.98;;;10.73;;
23720;SDS011;42950;52.134;5.578;2023-08-12T01:59:34;17.58;;;11.95;;
23720;SDS011;42950;52.134;5.578;2023-08-12T02:02:00;15.38;;;10.80;;
23720;SDS011;42950;52.134;5.578;2023-08-12T02:04:26;15.70;;;11.25;;
23720;SDS011;42950;52.134;5.578;2023-08-12T02:06:53;15.40;;;11.48;;
23720;SDS011;42950;52.134;5.578;2023-08-12T02:09:19;17.40;;;11.95;;
23720;SDS011;42950;52.134;5.578;2023-08-12T02:11:45;18.02;;;11.70;;
23720;SDS011;42950;52.134;5.578;2023-08-12T02:14:11;17.27;;;12.25;;
23720;SDS011;42950;52.134;5.578;2023-08-12T02:16:37;16.80;;;11.77;;
23720;SDS011;42950;52.134;5.578;2023-08-12T02:19:03;17.63;;;12.68;;
23720;SDS011;42950;52.134;5.578;2023-08-12T02:21:29;19.88;;;12.65;;
23720;SDS011;42950;52.134;5.578;2023-08-12T02:23:54;16.40;;;11.18;;
23720;SDS011;42950;52.134;5.578;2023-08-12T02:26:20;17.23;;;12.52;;
23720;SDS011;42950;52.134;5.578;2023-08-12T02:28:45;17.30;;;11.82;;
23720;SDS011;42950;52.134;5.578;2023-08-12T02:31:11;17.00;;;13.52;;
23720;SDS011;42950;52.134;5.578;2023-08-12T02:33:37;24.00;;;13.48;;
23720;SDS011;42950;52.134;5.578;2023-08-12T02:36:02;20.20;;;13.68;;
23720;SDS011;42950;52.134;5.578;2023-08-12T02:38:28;17.20;;;13.52;;
23720;SDS011;42950;52.134;5.578;2023-08-12T02:40:54;22.08;;;12.80;;
23720;SDS011;42950;52.134;5.578;2023-08-12T02:43:21;20.33;;;13.85;;
23720;SDS011;42950;52.134;5.578;2023-08-12T02:45:48;18.70;;;12.70;;
23720;SDS011;42950;52.134;5.578;2023-08-12T02:48:13;24.40;;;14.25;;
23720;SDS011;42950;52.134;5.578;2023-08-12T02:50:39;18.35;;;12.88;;
23720;SDS011;42950;52.134;5.578;2023-08-12T02:53:05;19.85;;;13.82;;
23720;SDS011;42950;52.134;5.578;2023-08-12T02:55:31;20.02;;;14.02;;
23720;SDS011;42950;52.134;5.578;2023-08-12T02:57:58;18.95;;;14.30;;
23720;SDS011;42950;52.134;5.578;2023-08-12T03:00:23;18.92;;;14.65;;
23720;SDS011;42950;52.134;5.578;2023-08-12T03:02:50;21.67;;;15.18;;
23720;SDS011;42950;52.134;5.578;2023-08-12T03:05:16;24.08;;;15.55;;
23720;SDS011;42950;52.134;5.578;2023-08-12T03:07:42;21.35;;;15.13;;
23720;SDS011;42950;52.134;5.578;2023-08-12T03:10:07;21.83;;;16.10;;
23720;SDS011;42950;52.134;5.578;2023-08-12T03:12:34;19.90;;;15.52;;
23720;SDS011;42950;52.134;5.578;2023-08-12T03:15:00;21.23;;;15.55;;
23720;SDS011;42950;52.134;5.578;2023-08-12T03:17:26;27.52;;;16.83;;
23720;SDS011;42950;52.134;5.578;2023-08-12T03:19:53;26.52;;;17.92;;
23720;SDS011;42950;52.134;5.578;2023-08-12T03:22:22;23.05;;;16.77;;
23720;SDS011;42950;52.134;5.578;2023-08-12T03:24:48;19.15;;;16.90;;
23720;SDS011;42950;52.134;5.578;2023-08-12T03:27:14;21.35;;;16.23;;
23720;SDS011;42950;52.134;5.578;2023-08-12T03:29:39;20.45;;;15.85;;
23720;SDS011;42950;52.134;5.578;2023-08-12T03:32:05;24.40;;;17.98;;
23720;SDS011;42950;52.134;5.578;2023-08-12T03:34:31;21.10;;;16.70;;
23720;SDS011;42950;52.134;5.578;2023-08-12T03:36:56;23.05;;;16.77;;
23720;SDS011;42950;52.134;5.578;2023-08-12T03:39:22;22.30;;;16.77;;
23720;SDS011;42950;52.134;5.578;2023-08-12T03:41:49;22.27;;;16.58;;
23720;SDS011;42950;52.134;5.578;2023-08-12T03:44:15;24.05;;;17.75;;
23720;SDS011;42950;52.134;5.578;2023-08-12T03:46:41;24.10;;;16.48;;
23720;SDS011;42950;52.134;5.578;2023-08-12T03:49:08;28.80;;;18.23;;
23720;SDS011;42950;52.134;5.578;2023-08-12T03:51:34;21.80;;;16.73;;
23720;SDS011;42950;52.134;5.578;2023-08-12T03:53:59;22.77;;;17.00;;
23720;SDS011;42950;52.134;5.578;2023-08-12T03:56:27;26.70;;;18.45;;
23720;SDS011;42950;52.134;5.578;2023-08-12T03:58:52;27.45;;;18.70;;
23720;SDS011;42950;52.134;5.578;2023-08-12T04:01:18;23.88;;;17.02;;
23720;SDS011;42950;52.134;5.578;2023-08-12T04:03:44;25.77;;;17.15;;
23720;SDS011;42950;52.134;5.578;2023-08-12T04:06:10;30.40;;;18.95;;
23720;SDS011;42950;52.134;5.578;2023-08-12T04:08:35;26.88;;;19.63;;
23720;SDS011;42950;52.134;5.578;2023-08-12T04:11:02;23.88;;;17.67;;
23720;SDS011;42950;52.134;5.578;2023-08-12T04:13:27;25.70;;;18.02;;
23720;SDS011;42950;52.134;5.578;2023-08-12T04:15:53;24.45;;;20.15;;
23720;SDS011;42950;52.134;5.578;2023-08-12T04:18:19;29.55;;;21.17;;
23720;SDS011;42950;52.134;5.578;2023-08-12T04:20:45;27.63;;;20.50;;
23720;SDS011;42950;52.134;5.578;2023-08-12T04:23:12;26.50;;;20.55;;
23720;SDS011;42950;52.134;5.578;2023-08-12T04:25:38;30.83;;;21.27;;
23720;SDS011;42950;52.134;5.578;2023-08-12T04:28:04;22.80;;;18.23;;
23720;SDS011;42950;52.134;5.578;2023-08-12T04:30:29;27.17;;;19.00;;
23720;SDS011;42950;52.134;5.578;2023-08-12T04:32:55;21.67;;;17.75;;
23720;SDS011;42950;52.134;5.578;2023-08-12T04:35:22;23.98;;;18.42;;
23720;SDS011;42950;52.134;5.578;2023-08-12T04:37:48;26.33;;;19.48;;
23720;SDS011;42950;52.134;5.578;2023-08-12T04:40:13;25.55;;;19.50;;
23720;SDS011;42950;52.134;5.578;2023-08-12T04:42:39;28.60;;;20.02;;
23720;SDS011;42950;52.134;5.578;2023-08-12T04:45:05;25.38;;;18.52;;
23720;SDS011;42950;52.134;5.578;2023-08-12T04:47:31;25.50;;;18.58;;
23720;SDS011;42950;52.134;5.578;2023-08-12T04:49:57;28.10;;;19.35;;
23720;SDS011;42950;52.134;5.578;2023-08-12T04:52:22;27.75;;;19.52;;
23720;SDS011;42950;52.134;5.578;2023-08-12T04:54:48;25.17;;;17.90;;
23720;SDS011;42950;52.134;5.578;2023-08-12T04:57:14;26.48;;;18.67;;
23720;SDS011;42950;52.134;5.578;2023-08-12T04:59:39;29.88;;;19.00;;
23720;SDS011;42950;52.134;5.578;2023-08-12T05:02:05;28.20;;;17.92;;
23720;SDS011;42950;52.134;5.578;2023-08-12T05:04:30;30.30;;;17.10;;
23720;SDS011;42950;52.134;5.578;2023-08-12T05:06:56;26.73;;;18.20;;
23720;SDS011;42950;52.134;5.578;2023-08-12T05:09:22;26.77;;;16.83;;
23720;SDS011;42950;52.134;5.578;2023-08-12T05:11:48;23.60;;;17.05;;
23720;SDS011;42950;52.134;5.578;2023-08-12T05:14:14;24.38;;;17.30;;
23720;SDS011;42950;52.134;5.578;2023-08-12T05:16:40;24.70;;;17.15;;
23720;SDS011;42950;52.134;5.578;2023-08-12T05:19:05;21.25;;;17.20;;
23720;SDS011;42950;52.134;5.578;2023-08-12T05:21:31;21.38;;;15.75;;
23720;SDS011;42950;52.134;5.578;2023-08-12T05:23:56;21.15;;;16.10;;
23720;SDS011;42950;52.134;5.578;2023-08-12T05:26:22;25.48;;;16.77;;
23720;SDS011;42950;52.134;5.578;2023-08-12T05:28:48;22.73;;;16.73;;
23720;SDS011;42950;52.134;5.578;2023-08-12T05:31:13;24.88;;;16.90;;
23720;SDS011;42950;52.134;5.578;2023-08-12T05:33:40;23.45;;;16.50;;
23720;SDS011;42950;52.134;5.578;2023-08-12T05:36:05;22.17;;;16.35;;
23720;SDS011;42950;52.134;5.578;2023-08-12T05:38:31;27.48;;;17.70;;
23720;SDS011;42950;52.134;5.578;2023-08-12T05:40:58;24.10;;;16.73;;
23720;SDS011;42950;52.134;5.578;2023-08-12T05:43:23;24.23;;;17.20;;
23720;SDS011;42950;52.134;5.578;2023-08-12T05:45:49;19.65;;;15.82;;
23720;SDS011;42950;52.134;5.578;2023-08-12T05:48:15;19.80;;;15.25;;
23720;SDS011;42950;52.134;5.578;2023-08-12T05:50:40;21.15;;;16.13;;
23720;SDS011;42950;52.134;5.578;2023-08-12T05:53:06;21.38;;;16.63;;
23720;SDS011;42950;52.134;5.578;2023-08-12T05:55:33;19.55;;;15.57;;
23720;SDS011;42950;52.134;5.578;2023-08-12T05:58:00;20.25;;;14.77;;
23720;SDS011;42950;52.134;5.578;2023-08-12T06:00:26;20.98;;;15.32;;
23720;SDS011;42950;52.134;5.578;2023-08-12T06:02:51;23.02;;;15.35;;
23720;SDS011;42950;52.134;5.578;2023-08-12T06:05:19;19.58;;;15.13;;
23720;SDS011;42950;52.134;5.578;2023-08-12T06:07:46;17.63;;;14.65;;
23720;SDS011;42950;52.134;5.578;2023-08-12T06:10:11;18.92;;;13.20;;
23720;SDS011;42950;52.134;5.578;2023-08-12T06:12:37;12.65;;;11.35;;
23720;SDS011;42950;52.134;5.578;2023-08-12T06:15:03;14.00;;;11.85;;
23720;SDS011;42950;52.134;5.578;2023-08-12T06:17:29;16.00;;;11.23;;
23720;SDS011;42950;52.134;5.578;2023-08-12T06:19:56;16.77;;;9.73;;
23720;SDS011;42950;52.134;5.578;2023-08-12T06:22:22;11.18;;;9.07;;
23720;SDS011;42950;52.134;5.578;2023-08-12T06:24:50;12.00;;;8.80;;
23720;SDS011;42950;52.134;5.578;2023-08-12T06:27:16;9.65;;;7.85;;
23720;SDS011;42950;52.134;5.578;2023-08-12T06:29:44;10.65;;;7.07;;
23720;SDS011;42950;52.134;5.578;2023-08-12T06:32:10;10.10;;;6.88;;
23720;SDS011;42950;52.134;5.578;2023-08-12T06:34:38;11.45;;;8.00;;
23720;SDS011;42950;52.134;5.578;2023-08-12T06:37:03;9.70;;;7.45;;
23720;SDS011;42950;52.134;5.578;2023-08-12T06:39:29;8.73;;;7.47;;
23720;SDS011;42950;52.134;5.578;2023-08-12T06:41:54;8.88;;;7.95;;
23720;SDS011;42950;52.134;5.578;2023-08-12T06:44:20;10.80;;;7.93;;
23720;SDS011;42950;52.134;5.578;2023-08-12T06:46:46;10.13;;;8.05;;
23720;SDS011;42950;52.134;5.578;2023-08-12T06:49:12;9.88;;;8.15;;
23720;SDS011;42950;52.134;5.578;2023-08-12T06:51:38;12.55;;;8.25;;
23720;SDS011;42950;52.134;5.578;2023-08-12T06:54:03;12.55;;;8.65;;
23720;SDS011;42950;52.134;5.578;2023-08-12T06:56:30;9.93;;;8.90;;
23720;SDS011;42950;52.134;5.578;2023-08-12T06:58:56;11.43;;;9.77;;
23720;SDS011;42950;52.134;5.578;2023-08-12T07:01:21;13.13;;;10.50;;
23720;SDS011;42950;52.134;5.578;2023-08-12T07:03:47;11.25;;;9.45;;
23720;SDS011;42950;52.134;5.578;2023-08-12T07:06:13;10.27;;;9.23;;
23720;SDS011;42950;52.134;5.578;2023-08-12T07:08:38;11.40;;;9.02;;
23720;SDS011;42950;52.134;5.578;2023-08-12T07:11:06;10.05;;;8.98;;
23720;SDS011;42950;52.134;5.578;2023-08-12T07:13:32;10.90;;;9.50;;
23720;SDS011;42950;52.134;5.578;2023-08-12T07:15:58;9.38;;;8.38;;
23720;SDS011;42950;52.134;5.578;2023-08-12T07:18:24;10.20;;;8.95;;
23720;SDS011;42950;52.134;5.578;2023-08-12T07:20:50;9.48;;;8.48;;
23720;SDS011;42950;52.134;5.578;2023-08-12T07:23:15;9.40;;;8.43;;
23720;SDS011;42950;52.134;5.578;2023-08-12T07:25:41;10.30;;;8.27;;
23720;SDS011;42950;52.134;5.578;2023-08-12T07:28:08;11.05;;;8.68;;
23720;SDS011;42950;52.134;5.578;2023-08-12T07:30:34;9.40;;;8.40;;
23720;SDS011;42950;52.134;5.578;2023-08-12T07:33:01;10.07;;;8.18;;
23720;SDS011;42950;52.134;5.578;2023-08-12T07:35:26;8.80;;;7.78;;
23720;SDS011;42950;52.134;5.578;2023-08-12T07:37:54;7.80;;;7.00;;
23720;SDS011;42950;52.134;5.578;2023-08-12T07:40:20;7.63;;;6.90;;
23720;SDS011;42950;52.134;5.578;2023-08-12T07:42:45;8.02;;;6.45;;
23720;SDS011;42950;52.134;5.578;2023-08-12T07:45:11;7.47;;;5.88;;
23720;SDS011;42950;52.134;5.578;2023-08-12T07:47:36;6.53;;;5.75;;
23720;SDS011;42950;52.134;5.578;2023-08-12T07:50:02;6.13;;;5.53;;
23720;SDS011;42950;52.134;5.578;2023-08-12T07:52:29;5.40;;;4.90;;
23720;SDS011;42950;52.134;5.578;2023-08-12T07:54:56;6.20;;;5.60;;
23720;SDS011;42950;52.134;5.578;2023-08-12T07:57:21;5.55;;;5.05;;
23720;SDS011;42950;52.134;5.578;2023-08-12T07:59:49;7.95;;;5.30;;
23720;SDS011;42950;52.134;5.578;2023-08-12T08:02:16;6.18;;;4.90;;
23720;SDS011;42950;52.134;5.578;2023-08-12T08:04:42;4.72;;;4.20;;
23720;SDS011;42950;52.134;5.578;2023-08-12T08:07:07;6.32;;;4.30;;
23720;SDS011;42950;52.134;5.578;2023-08-12T08:09:33;4.05;;;3.75;;
23720;SDS011;42950;52.134;5.578;2023-08-12T08:11:59;5.07;;;4.10;;
23720;SDS011;42950;52.134;5.578;2023-08-12T08:14:26;4.63;;;4.22;;
23720;SDS011;42950;52.134;5.578;2023-08-12T08:16:54;3.92;;;3.63;;
23720;SDS011;42950;52.134;5.578;2023-08-12T08:19:20;4.30;;;3.90;;
23720;SDS011;42950;52.134;5.578;2023-08-12T08:21:48;4.20;;;3.55;;
23720;SDS011;42950;52.134;5.578;2023-08-12T08:24:13;3.67;;;3.38;;
23720;SDS011;42950;52.134;5.578;2023-08-12T08:26:39;3.85;;;3.17;;
23720;SDS011;42950;52.134;5.578;2023-08-12T08:29:10;3.50;;;3.30;;
23720;SDS011;42950;52.134;5.578;2023-08-12T08:31:36;3.15;;;2.92;;
23720;SDS011;42950;52.134;5.578;2023-08-12T08:34:01;3.28;;;2.75;;
23720;SDS011;42950;52.134;5.578;2023-08-12T08:36:27;3.30;;;3.10;;
23720;SDS011;42950;52.134;5.578;2023-08-12T08:38:52;3.30;;;3.10;;
23720;SDS011;42950;52.134;5.578;2023-08-12T08:41:20;3.30;;;3.10;;
23720;SDS011;42950;52.134;5.578;2023-08-12T08:43:47;3.40;;;3.10;;
23720;SDS011;42950;52.134;5.578;2023-08-12T08:46:16;2.85;;;2.65;;
23720;SDS011;42950;52.134;5.578;2023-08-12T08:48:45;2.35;;;2.17;;
23720;SDS011;42950;52.134;5.578;2023-08-12T08:51:13;2.83;;;2.10;;
23720;SDS011;42950;52.134;5.578;2023-08-12T08:53:40;2.00;;;1.90;;
23720;SDS011;42950;52.134;5.578;2023-08-12T08:56:06;1.35;;;1.25;;
23720;SDS011;42950;52.134;5.578;2023-08-12T08:58:36;2.38;;;1.48;;
23720;SDS011;42950;52.134;5.578;2023-08-12T09:01:02;1.60;;;1.50;;
23720;SDS011;42950;52.134;5.578;2023-08-12T09:03:29;2.90;;;1.60;;
23720;SDS011;42950;52.134;5.578;2023-08-12T09:05:57;1.95;;;1.63;;
23720;SDS011;42950;52.134;5.578;2023-08-12T09:08:24;3.92;;;3.10;;
23720;SDS011;42950;52.134;5.578;2023-08-12T09:10:52;2.92;;;2.30;;
23720;SDS011;42950;52.134;5.578;2023-08-12T09:13:20;1.58;;;1.48;;
23720;SDS011;42950;52.134;5.578;2023-08-12T09:15:45;1.40;;;1.30;;
23720;SDS011;42950;52.134;5.578;2023-08-12T09:18:12;1.25;;;1.25;;
23720;SDS011;42950;52.134;5.578;2023-08-12T09:20:38;1.58;;;1.33;;
23720;SDS011;42950;52.134;5.578;2023-08-12T09:23:06;1.60;;;1.40;;
23720;SDS011;42950;52.134;5.578;2023-08-12T09:25:35;1.83;;;1.73;;
23720;SDS011;42950;52.134;5.578;2023-08-12T09:28:07;1.17;;;1.00;;
23720;SDS011;42950;52.134;5.578;2023-08-12T09:30:34;1.40;;;1.20;;
23720;SDS011;42950;52.134;5.578;2023-08-12T09:33:02;1.00;;;0.70;;
23720;SDS011;42950;52.134;5.578;2023-08-12T09:35:37;0.90;;;0.90;;
23720;SDS011;42950;52.134;5.578;2023-08-12T09:38:04;2.53;;;1.13;;
23720;SDS011;42950;52.134;5.578;2023-08-12T09:40:32;1.95;;;1.25;;
23720;SDS011;42950;52.134;5.578;2023-08-12T09:42:59;1.27;;;1.17;;
23720;SDS011;42950;52.134;5.578;2023-08-12T09:45:25;1.30;;;1.10;;
23720;SDS011;42950;52.134;5.578;2023-08-12T09:47:51;1.20;;;1.10;;
23720;SDS011;42950;52.134;5.578;2023-08-12T09:50:21;3.10;;;1.30;;
23720;SDS011;42950;52.134;5.578;2023-08-12T09:52:48;1.35;;;1.20;;
23720;SDS011;42950;52.134;5.578;2023-08-12T09:55:15;3.80;;;1.38;;
23720;SDS011;42950;52.134;5.578;2023-08-12T09:57:42;1.75;;;1.48;;
23720;SDS011;42950;52.134;5.578;2023-08-12T10:00:10;2.85;;;1.70;;
23720;SDS011;42950;52.134;5.578;2023-08-12T10:02:45;2.03;;;1.65;;
23720;SDS011;42950;52.134;5.578;2023-08-12T10:05:16;2.80;;;1.77;;
23720;SDS011;42950;52.134;5.578;2023-08-12T10:07:52;2.85;;;1.88;;
23720;SDS011;42950;52.134;5.578;2023-08-12T10:10:18;7.47;;;2.28;;
23720;SDS011;42950;52.134;5.578;2023-08-12T10:12:46;3.90;;;1.73;;
23720;SDS011;42950;52.134;5.578;2023-08-12T10:15:13;2.40;;;1.48;;
23720;SDS011;42950;52.134;5.578;2023-08-12T10:17:40;5.03;;;2.00;;
23720;SDS011;42950;52.134;5.578;2023-08-12T10:20:07;5.32;;;2.00;;
23720;SDS011;42950;52.134;5.578;2023-08-12T10:22:37;6.05;;;2.42;;
23720;SDS011;42950;52.134;5.578;2023-08-12T10:25:05;4.50;;;2.00;;
23720;SDS011;42950;52.134;5.578;2023-08-12T10:27:34;5.57;;;2.30;;
23720;SDS011;42950;52.134;5.578;2023-08-12T10:30:04;5.95;;;2.47;;
23720;SDS011;42950;52.134;5.578;2023-08-12T10:32:31;6.90;;;2.90;;
23720;SDS011;42950;52.134;5.578;2023-08-12T10:34:57;5.13;;;2.47;;
23720;SDS011;42950;52.134;5.578;2023-08-12T10:37:25;9.30;;;2.60;;
23720;SDS011;42950;52.134;5.578;2023-08-12T10:39:54;6.40;;;2.70;;
23720;SDS011;42950;52.134;5.578;2023-08-12T10:45:09;6.22;;;2.60;;
23720;SDS011;42950;52.134;5.578;2023-08-12T10:47:42;8.05;;;2.33;;
23720;SDS011;42950;52.134;5.578;2023-08-12T10:50:21;6.57;;;2.45;;
23720;SDS011;42950;52.134;5.578;2023-08-12T10:52:53;7.97;;;2.30;;
23720;SDS011;42950;52.134;5.578;2023-08-12T10:55:21;7.78;;;2.10;;
23720;SDS011;42950;52.134;5.578;2023-08-12T10:57:48;4.82;;;2.33;;
23720;SDS011;42950;52.134;5.578;2023-08-12T11:00:18;6.20;;;2.15;;
23720;SDS011;42950;52.134;5.578;2023-08-12T11:02:51;7.85;;;2.45;;
23720;SDS011;42950;52.134;5.578;2023-08-12T11:05:18;3.42;;;1.55;;
23720;SDS011;42950;52.134;5.578;2023-08-12T11:07:46;5.93;;;1.92;;
23720;SDS011;42950;52.134;5.578;2023-08-12T11:10:16;7.25;;;1.80;;
23720;SDS011;42950;52.134;5.578;2023-08-12T11:12:56;6.25;;;1.77;;
23720;SDS011;42950;52.134;5.578;2023-08-12T11:15:41;3.63;;;1.60;;
23720;SDS011;42950;52.134;5.578;2023-08-12T11:18:15;6.00;;;1.67;;
23720;SDS011;42950;52.134;5.578;2023-08-12T11:20:42;8.05;;;2.20;;
23720;SDS011;42950;52.134;5.578;2023-08-12T11:23:08;4.30;;;1.63;;
23720;SDS011;42950;52.134;5.578;2023-08-12T11:25:37;7.88;;;2.00;;
23720;SDS011;42950;52.134;5.578;2023-08-12T11:28:05;4.50;;;2.10;;
23720;SDS011;42950;52.134;5.578;2023-08-12T11:30:32;7.18;;;2.42;;
23720;SDS011;42950;52.134;5.578;2023-08-12T11:32:59;5.43;;;2.05;;
23720;SDS011;42950;52.134;5.578;2023-08-12T11:35:26;5.45;;;1.52;;
23720;SDS011;42950;52.134;5.578;2023-08-12T11:37:52;6.95;;;2.10;;
23720;SDS011;42950;52.134;5.578;2023-08-12T11:40:21;7.20;;;2.13;;
23720;SDS011;42950;52.134;5.578;2023-08-12T11:42:48;6.78;;;2.08;;
23720;SDS011;42950;52.134;5.578;2023-08-12T11:45:18;6.28;;;2.22;;
23720;SDS011;42950;52.134;5.578;2023-08-12T11:47:45;6.28;;;1.95;;
23720;SDS011;42950;52.134;5.578;2023-08-12T11:50:17;6.32;;;2.08;;
23720;SDS011;42950;52.134;5.578;2023-08-12T11:52:44;7.22;;;1.73;;
23720;SDS011;42950;52.134;5.578;2023-08-12T11:55:13;7.13;;;1.92;;
23720;SDS011;42950;52.134;5.578;2023-08-12T11:57:39;5.68;;;1.73;;
23720;SDS011;42950;52.134;5.578;2023-08-12T12:00:06;5.25;;;1.85;;
23720;SDS011;42950;52.134;5.578;2023-08-12T12:02:41;6.72;;;1.50;;
23720;SDS011;42950;52.134;5.578;2023-08-12T12:05:13;6.35;;;1.58;;
23720;SDS011;42950;52.134;5.578;2023-08-12T12:07:39;6.53;;;1.88;;
23720;SDS011;42950;52.134;5.578;2023-08-12T12:10:06;6.45;;;1.70;;
23720;SDS011;42950;52.134;5.578;2023-08-12T12:12:35;6.00;;;2.00;;
23720;SDS011;42950;52.134;5.578;2023-08-12T12:15:02;5.95;;;2.00;;
23720;SDS011;42950;52.134;5.578;2023-08-12T12:17:28;7.53;;;2.28;;
23720;SDS011;42950;52.134;5.578;2023-08-12T12:19:58;5.15;;;1.80;;
23720;SDS011;42950;52.134;5.578;2023-08-12T12:22:32;5.78;;;1.90;;
23720;SDS011;42950;52.134;5.578;2023-08-12T12:25:05;7.43;;;1.88;;
23720;SDS011;42950;52.134;5.578;2023-08-12T12:27:33;8.07;;;1.80;;
23720;SDS011;42950;52.134;5.578;2023-08-12T12:30:00;5.88;;;1.45;;
23720;SDS011;42950;52.134;5.578;2023-08-12T12:32:26;7.93;;;2.00;;
23720;SDS011;42950;52.134;5.578;2023-08-12T12:34:52;4.45;;;2.00;;
23720;SDS011;42950;52.134;5.578;2023-08-12T12:37:19;7.10;;;2.10;;
23720;SDS011;42950;52.134;5.578;2023-08-12T12:39:45;7.15;;;1.92;;
23720;SDS011;42950;52.134;5.578;2023-08-12T12:42:11;5.15;;;1.60;;
23720;SDS011;42950;52.134;5.578;2023-08-12T12:44:38;6.50;;;1.80;;
23720;SDS011;42950;52.134;5.578;2023-08-12T12:47:04;5.88;;;1.85;;
23720;SDS011;42950;52.134;5.578;2023-08-12T12:49:29;5.68;;;1.73;;
23720;SDS011;42950;52.134;5.578;2023-08-12T12:51:55;7.57;;;1.80;;
23720;SDS011;42950;52.134;5.578;2023-08-12T12:54:24;6.15;;;2.13;;
23720;SDS011;42950;52.134;5.578;2023-08-12T12:56:50;9.10;;;1.95;;
23720;SDS011;42950;52.134;5.578;2023-08-12T12:59:16;8.00;;;1.80;;
23720;SDS011;42950;52.134;5.578;2023-08-12T13:01:42;6.95;;;1.77;;
23720;SDS011;42950;52.134;5.578;2023-08-12T13:04:08;3.88;;;1.35;;
23720;SDS011;42950;52.134;5.578;2023-08-12T13:06:34;4.78;;;1.77;;
23720;SDS011;42950;52.134;5.578;2023-08-12T13:09:00;7.30;;;1.70;;
23720;SDS011;42950;52.134;5.578;2023-08-12T13:11:27;7.15;;;1.65;;
23720;SDS011;42950;52.134;5.578;2023-08-12T13:13:53;4.55;;;1.60;;
23720;SDS011;42950;52.134;5.578;2023-08-12T13:16:20;5.63;;;1.45;;
23720;SDS011;42950;52.134;5.578;2023-08-12T13:18:45;5.25;;;1.50;;
23720;SDS011;42950;52.134;5.578;2023-08-12T13:21:11;6.68;;;1.58;;
23720;SDS011;42950;52.134;5.578;2023-08-12T13:23:37;5.53;;;1.70;;
23720;SDS011;42950;52.134;5.578;2023-08-12T13:26:03;5.65;;;1.73;;
23720;SDS011;42950;52.134;5.578;2023-08-12T13:28:28;6.40;;;1.75;;
23720;SDS011;42950;52.134;5.578;2023-08-12T13:30:55;6.03;;;2.10;;
23720;SDS011;42950;52.134;5.578;2023-08-12T13:33:21;4.45;;;1.48;;
23720;SDS011;42950;52.134;5.578;2023-08-12T13:35:47;6.80;;;1.88;;
23720;SDS011;42950;52.134;5.578;2023-08-12T13:38:14;5.32;;;1.55;;
23720;SDS011;42950;52.134;5.578;2023-08-12T13:40:39;6.90;;;1.80;;
23720;SDS011;42950;52.134;5.578;2023-08-12T13:43:05;8.15;;;1.85;;
23720;SDS011;42950;52.134;5.578;2023-08-12T13:45:31;5.05;;;1.73;;
23720;SDS011;42950;52.134;5.578;2023-08-12T13:47:56;5.18;;;1.90;;
23720;SDS011;42950;52.134;5.578;2023-08-12T13:50:22;6.13;;;1.55;;
23720;SDS011;42950;52.134;5.578;2023-08-12T13:52:49;7.13;;;2.10;;
23720;SDS011;42950;52.134;5.578;2023-08-12T13:55:15;7.22;;;1.95;;
23720;SDS011;42950;52.134;5.578;2023-08-12T13:57:41;7.10;;;2.05;;
23720;SDS011;42950;52.134;5.578;2023-08-12T14:00:07;7.63;;;2.10;;
23720;SDS011;42950;52.134;5.578;2023-08-12T14:02:35;6.57;;;1.75;;
23720;SDS011;42950;52.134;5.578;2023-08-12T14:05:01;8.95;;;2.22;;
23720;SDS011;42950;52.134;5.578;2023-08-12T14:07:28;6.55;;;2.03;;
23720;SDS011;42950;52.134;5.578;2023-08-12T14:09:54;9.90;;;2.33;;
23720;SDS011;42950;52.134;5.578;2023-08-12T14:12:19;6.25;;;2.08;;
23720;SDS011;42950;52.134;5.578;2023-08-12T14:14:45;7.65;;;1.92;;
23720;SDS011;42950;52.134;5.578;2023-08-12T14:17:11;6.82;;;2.00;;
23720;SDS011;42950;52.134;5.578;2023-08-12T14:19:40;5.60;;;1.77;;
23720;SDS011;42950;52.134;5.578;2023-08-12T14:22:07;7.70;;;2.15;;
23720;SDS011;42950;52.134;5.578;2023-08-12T14:24:32;9.00;;;2.10;;
23720;SDS011;42950;52.134;5.578;2023-08-12T14:26:58;8.95;;;2.00;;
23720;SDS011;42950;52.134;5.578;2023-08-12T14:29:24;9.18;;;2.40;;
23720;SDS011;42950;52.134;5.578;2023-08-12T14:31:50;7.40;;;2.10;;
23720;SDS011;42950;52.134;5.578;2023-08-12T14:34:17;7.75;;;2.20;;
23720;SDS011;42950;52.134;5.578;2023-08-12T14:36:42;8.20;;;1.98;;
23720;SDS011;42950;52.134;5.578;2023-08-12T14:39:08;9.38;;;2.05;;
23720;SDS011;42950;52.134;5.578;2023-08-12T14:41:33;5.78;;;1.85;;